sensor_id;sensor_type;location;lat;lon;timestamp;temperature;humidity
19561;DHT22;9927;47.792;10.616;2023-01-06T04:02:50;3.70;99.90
19561;DHT22;9927;47.792;10.616;2023-01-06T04:05:20;3.60;99.90
19561;DHT22;9927;47.792;10.616;2023-01-06T04:07:47;3.70;99.90
19561;DHT22;9927;47.792;10.616;2023-01-06T04:10:17;3.70;99.90
19561;DHT22;9927;47.792;10.616;2023-01-06T04:12:44;3.60;99.90
19561;DHT22;9927;47.792;10.616;2023-01-06T04:15:14;3.60;99.90
19561;DHT22;9927;47.792;10.616;2023-01-06T04:17:42;3.70;99.90
19561;DHT22;9927;47.792;10.616;2023-01-06T04:20:13;3.70;99.90
19561;DHT22;9927;47.792;10.616;2023-01-06T04:22:40;3.70;99.90
19561;DHT22;9927;47.792;10.616;2023-01-06T04:25:08;3.70;99.90
19561;DHT22;9927;47.792;10.616;2023-01-06T04:27:36;3.80;99.90
19561;DHT22;9927;47.792;10.616;2023-01-06T04:30:04;3.60;99.90
19561;DHT22;9927;47.792;10.616;2023-01-06T04:32:32;3.60;99.90
19561;DHT22;9927;47.792;10.616;2023-01-06T04:34:59;3.50;99.90
19561;DHT22;9927;47.792;10.616;2023-01-06T04:37:26;3.50;99.90
19561;DHT22;9927;47.792;10.616;2023-01-06T04:39:53;3.40;99.90
19561;DHT22;9927;47.792;10.616;2023-01-06T04:42:21;3.40;99.90
19561;DHT22;9927;47.792;10.616;2023-01-06T04:44:48;3.40;99.90
19561;DHT22;9927;47.792;10.616;2023-01-06T04:47:15;3.40;99.90
19561;DHT22;9927;47.792;10.616;2023-01-06T04:49:42;3.40;99.90
19561;DHT22;9927;47.792;10.616;2023-01-06T04:52:09;3.40;99.90
19561;DHT22;9927;47.792;10.616;2023-01-06T04:54:37;3.50;99.90
19561;DHT22;9927;47.792;10.616;2023-01-06T04:57:04;3.50;99.90
19561;DHT22;9927;47.792;10.616;2023-01-06T04:59:31;3.50;99.90
19561;DHT22;9927;47.792;10.616;2023-01-06T05:01:58;3.50;99.90
19561;DHT22;9927;47.792;10.616;2023-01-06T05:04:25;3.50;99.90
19561;DHT22;9927;47.792;10.616;2023-01-06T05:06:56;3.30;99.90
19561;DHT22;9927;47.792;10.616;2023-01-06T05:09:23;3.10;99.90
19561;DHT22;9927;47.792;10.616;2023-01-06T05:11:50;3.00;99.90
19561;DHT22;9927;47.792;10.616;2023-01-06T05:14:17;3.10;99.90
19561;DHT22;9927;47.792;10.616;2023-01-06T05:16:47;3.10;99.90
19561;DHT22;9927;47.792;10.616;2023-01-06T05:19:14;3.20;99.90
19561;DHT22;9927;47.792;10.616;2023-01-06T05:21:41;3.20;99.90
19561;DHT22;9927;47.792;10.616;2023-01-06T05:24:09;3.20;99.90
19561;DHT22;9927;47.792;10.616;2023-01-06T05:26:36;3.20;99.90
19561;DHT22;9927;47.792;10.616;2023-01-06T05:29:03;3.30;99.90
19561;DHT22;9927;47.792;10.616;2023-01-06T05:31:30;3.30;99.90
19561;DHT22;9927;47.792;10.616;2023-01-06T05:33:57;3.30;99.90
19561;DHT22;9927;47.792;10.616;2023-01-06T05:36:25;3.30;99.90
19561;DHT22;9927;47.792;10.616;2023-01-06T05:38:53;3.20;99.90
19561;DHT22;9927;47.792;10.616;2023-01-06T05:41:20;3.20;99.90
19561;DHT22;9927;47.792;10.616;2023-01-06T05:43:48;3.00;99.90
19561;DHT22;9927;47.792;10.616;2023-01-06T05:46:15;2.80;99.90
19561;DHT22;9927;47.792;10.616;2023-01-06T05:48:42;2.80;99.90
19561;DHT22;9927;47.792;10.616;2023-01-06T05:51:12;2.70;99.90
19561;DHT22;9927;47.792;10.616;2023-01-06T05:53:43;2.30;99.90
19561;DHT22;9927;47.792;10.616;2023-01-06T05:56:12;2.10;99.90
19561;DHT22;9927;47.792;10.616;2023-01-06T05:58:43;2.10;99.90
19561;DHT22;9927;47.792;10.616;2023-01-06T06:01:18;2.10;99.90
19561;DHT22;9927;47.792;10.616;2023-01-06T06:03:46;2.20;99.90
19561;DHT22;9927;47.792;10.616;2023-01-06T06:06:14;2.40;99.90
19561;DHT22;9927;47.792;10.616;2023-01-06T06:08:41;2.40;99.90
19561;DHT22;9927;47.792;10.616;2023-01-06T06:11:11;2.50;99.90
19561;DHT22;9927;47.792;10.616;2023-01-06T06:13:44;2.50;99.90
19561;DHT22;9927;47.792;10.616;2023-01-06T06:16:14;2.60;99.90
19561;DHT22;9927;47.792;10.616;2023-01-06T06:18:41;2.60;99.90
19561;DHT22;9927;47.792;10.616;2023-01-06T06:21:15;2.70;99.90
19561;DHT22;9927;47.792;10.616;2023-01-06T06:23:43;2.70;99.90
19561;DHT22;9927;47.792;10.616;2023-01-06T06:26:10;2.70;99.90
19561;DHT22;9927;47.792;10.616;2023-01-06T06:28:38;2.80;99.90
19561;DHT22;9927;47.792;10.616;2023-01-06T06:31:08;2.80;99.90
19561;DHT22;9927;47.792;10.616;2023-01-06T06:33:35;2.80;99.90
19561;DHT22;9927;47.792;10.616;2023-01-06T06:36:04;2.80;99.90
19561;DHT22;9927;47.792;10.616;2023-01-06T06:38:31;2.70;99.90
19561;DHT22;9927;47.792;10.616;2023-01-06T06:40:58;2.70;99.90
19561;DHT22;9927;47.792;10.616;2023-01-06T06:43:26;2.70;99.90
19561;DHT22;9927;47.792;10.616;2023-01-06T06:45:53;2.70;99.90
19561;DHT22;9927;47.792;10.616;2023-01-06T06:48:20;2.70;99.90
19561;DHT22;9927;47.792;10.616;2023-01-06T06:51:28;2.70;99.90
19561;DHT22;9927;47.792;10.616;2023-01-06T06:53:48;2.70;99.90
19561;DHT22;9927;47.792;10.616;2023-01-06T06:56:17;2.80;99.90
19561;DHT22;9927;47.792;10.616;2023-01-06T06:58:45;2.80;99.90
19561;DHT22;9927;47.792;10.616;2023-01-06T07:01:17;2.80;99.90
19561;DHT22;9927;47.792;10.616;2023-01-06T07:03:45;2.90;99.90
19561;DHT22;9927;47.792;10.616;2023-01-06T07:06:14;2.90;99.90
19561;DHT22;9927;47.792;10.616;2023-01-06T07:08:47;2.90;99.90
19561;DHT22;9927;47.792;10.616;2023-01-06T07:11:15;2.90;99.90
19561;DHT22;9927;47.792;10.616;2023-01-06T07:13:42;2.50;99.90
19561;DHT22;9927;47.792;10.616;2023-01-06T07:16:09;2.50;99.90
19561;DHT22;9927;47.792;10.616;2023-01-06T07:18:37;2.50;99.90
19561;DHT22;9927;47.792;10.616;2023-01-06T07:21:05;2.60;99.90
19561;DHT22;9927;47.792;10.616;2023-01-06T07:23:32;2.70;99.90
19561;DHT22;9927;47.792;10.616;2023-01-06T07:26:00;2.80;99.90
19561;DHT22;9927;47.792;10.616;2023-01-06T07:28:29;2.80;99.90
19561;DHT22;9927;47.792;10.616;2023-01-06T07:30:57;2.40;99.90
19561;DHT22;9927;47.792;10.616;2023-01-06T07:33:24;2.30;99.90
19561;DHT22;9927;47.792;10.616;2023-01-06T07:35:53;2.40;99.90
19561;DHT22;9927;47.792;10.616;2023-01-06T07:38:21;2.50;99.90
19561;DHT22;9927;47.792;10.616;2023-01-06T07:40:49;2.50;99.90
19561;DHT22;9927;47.792;10.616;2023-01-06T07:43:17;2.60;99.90
19561;DHT22;9927;47.792;10.616;2023-01-06T07:45:47;2.60;99.90
19561;DHT22;9927;47.792;10.616;2023-01-06T07:48:15;2.40;99.90
19561;DHT22;9927;47.792;10.616;2023-01-06T07:50:43;2.40;99.90
19561;DHT22;9927;47.792;10.616;2023-01-06T07:53:10;2.30;99.90
19561;DHT22;9927;47.792;10.616;2023-01-06T07:55:38;2.40;99.90
19561;DHT22;9927;47.792;10.616;2023-01-06T07:58:06;2.50;99.90
19561;DHT22;9927;47.792;10.616;2023-01-06T08:00:34;2.50;99.90
19561;DHT22;9927;47.792;10.616;2023-01-06T08:03:04;2.50;99.90
19561;DHT22;9927;47.792;10.616;2023-01-06T08:05:32;2.70;99.90
19561;DHT22;9927;47.792;10.616;2023-01-06T08:07:59;2.80;99.90
19561;DHT22;9927;47.792;10.616;2023-01-06T08:12:53;2.80;99.90
19561;DHT22;9927;47.792;10.616;2023-01-06T08:15:21;2.80;99.90
19561;DHT22;9927;47.792;10.616;2023-01-06T08:17:52;2.90;99.90
19561;DHT22;9927;47.792;10.616;2023-01-06T08:20:20;2.80;99.90
19561;DHT22;9927;47.792;10.616;2023-01-06T08:22:47;2.90;99.90
19561;DHT22;9927;47.792;10.616;2023-01-06T08:25:15;3.00;99.90
19561;DHT22;9927;47.792;10.616;2023-01-06T08:27:42;3.00;99.90
19561;DHT22;9927;47.792;10.616;2023-01-06T08:30:09;3.00;99.90
19561;DHT22;9927;47.792;10.616;2023-01-06T08:32:36;3.10;99.90
19561;DHT22;9927;47.792;10.616;2023-01-06T08:35:04;3.10;99.90
19561;DHT22;9927;47.792;10.616;2023-01-06T08:37:31;3.20;99.90
19561;DHT22;9927;47.792;10.616;2023-01-06T08:39:58;3.30;99.90
19561;DHT22;9927;47.792;10.616;2023-01-06T08:42:26;3.30;99.90
19561;DHT22;9927;47.792;10.616;2023-01-06T08:44:53;3.40;99.90
19561;DHT22;9927;47.792;10.616;2023-01-06T08:47:20;3.50;99.90
19561;DHT22;9927;47.792;10.616;2023-01-06T08:49:47;3.60;99.90
19561;DHT22;9927;47.792;10.616;2023-01-06T08:52:14;3.70;99.90
19561;DHT22;9927;47.792;10.616;2023-01-06T08:54:42;3.80;99.90
19561;DHT22;9927;47.792;10.616;2023-01-06T08:57:09;3.90;99.90
19561;DHT22;9927;47.792;10.616;2023-01-06T08:59:37;4.00;99.90
19561;DHT22;9927;47.792;10.616;2023-01-06T09:02:04;4.10;99.90
19561;DHT22;9927;47.792;10.616;2023-01-06T09:04:31;4.30;99.90
19561;DHT22;9927;47.792;10.616;2023-01-06T09:06:58;4.40;99.90
19561;DHT22;9927;47.792;10.616;2023-01-06T09:09:26;4.50;99.90
19561;DHT22;9927;47.792;10.616;2023-01-06T09:11:53;4.70;99.90
19561;DHT22;9927;47.792;10.616;2023-01-06T09:14:20;4.80;99.90
19561;DHT22;9927;47.792;10.616;2023-01-06T09:16:47;4.90;99.90
19561;DHT22;9927;47.792;10.616;2023-01-06T09:19:15;5.00;99.90
19561;DHT22;9927;47.792;10.616;2023-01-06T09:21:42;5.20;99.90
19561;DHT22;9927;47.792;10.616;2023-01-06T09:24:12;5.30;99.90
19561;DHT22;9927;47.792;10.616;2023-01-06T09:26:40;5.50;99.90
19561;DHT22;9927;47.792;10.616;2023-01-06T09:29:07;5.60;99.90
19561;DHT22;9927;47.792;10.616;2023-01-06T09:31:34;5.70;99.90
19561;DHT22;9927;47.792;10.616;2023-01-06T09:34:02;5.90;99.90
19561;DHT22;9927;47.792;10.616;2023-01-06T09:36:29;6.00;99.90
19561;DHT22;9927;47.792;10.616;2023-01-06T09:38:58;6.10;99.90
19561;DHT22;9927;47.792;10.616;2023-01-06T09:44:21;6.30;99.90
19561;DHT22;9927;47.792;10.616;2023-01-06T09:46:51;6.40;99.90
19561;DHT22;9927;47.792;10.616;2023-01-06T09:52:11;6.50;99.90
19561;DHT22;9927;47.792;10.616;2023-01-06T09:54:59;6.70;99.90
19561;DHT22;9927;47.792;10.616;2023-01-06T09:57:33;6.80;99.90
19561;DHT22;9927;47.792;10.616;2023-01-06T10:00:05;6.80;99.90
19561;DHT22;9927;47.792;10.616;2023-01-06T10:02:36;7.00;99.90
19561;DHT22;9927;47.792;10.616;2023-01-06T10:05:27;7.10;99.90
19561;DHT22;9927;47.792;10.616;2023-01-06T10:08:13;7.40;99.90
19561;DHT22;9927;47.792;10.616;2023-01-06T10:16:15;8.30;99.90
19561;DHT22;9927;47.792;10.616;2023-01-06T10:22:19;8.60;99.90
19561;DHT22;9927;47.792;10.616;2023-01-06T10:27:41;8.70;99.90
19561;DHT22;9927;47.792;10.616;2023-01-06T10:30:33;8.70;99.90
19561;DHT22;9927;47.792;10.616;2023-01-06T10:33:22;8.60;99.90
19561;DHT22;9927;47.792;10.616;2023-01-06T10:35:54;8.60;99.90
19561;DHT22;9927;47.792;10.616;2023-01-06T10:38:33;8.60;99.90
19561;DHT22;9927;47.792;10.616;2023-01-06T10:43:51;8.80;99.90
19561;DHT22;9927;47.792;10.616;2023-01-06T10:46:18;8.90;99.90
19561;DHT22;9927;47.792;10.616;2023-01-06T10:48:47;8.90;99.90
19561;DHT22;9927;47.792;10.616;2023-01-06T10:51:36;8.90;99.90
19561;DHT22;9927;47.792;10.616;2023-01-06T10:54:11;9.00;99.90
19561;DHT22;9927;47.792;10.616;2023-01-06T10:56:44;9.10;99.90
19561;DHT22;9927;47.792;10.616;2023-01-06T10:59:14;9.00;99.90
19561;DHT22;9927;47.792;10.616;2023-01-06T11:01:50;9.10;99.90
19561;DHT22;9927;47.792;10.616;2023-01-06T11:04:18;9.30;99.90
19561;DHT22;9927;47.792;10.616;2023-01-06T11:07:01;9.30;99.90
19561;DHT22;9927;47.792;10.616;2023-01-06T11:09:40;9.30;99.90
19561;DHT22;9927;47.792;10.616;2023-01-06T11:12:11;9.20;99.90
19561;DHT22;9927;47.792;10.616;2023-01-06T11:14:40;9.10;99.90
19561;DHT22;9927;47.792;10.616;2023-01-06T11:17:13;9.20;99.90
19561;DHT22;9927;47.792;10.616;2023-01-06T11:19:43;9.20;99.90
19561;DHT22;9927;47.792;10.616;2023-01-06T11:24:58;9.30;99.90
19561;DHT22;9927;47.792;10.616;2023-01-06T11:27:25;9.40;99.90
19561;DHT22;9927;47.792;10.616;2023-01-06T11:29:52;9.50;99.90
19561;DHT22;9927;47.792;10.616;2023-01-06T11:32:22;9.50;99.90
19561;DHT22;9927;47.792;10.616;2023-01-06T11:35:15;9.50;99.90
19561;DHT22;9927;47.792;10.616;2023-01-06T11:37:45;9.30;99.90
19561;DHT22;9927;47.792;10.616;2023-01-06T11:40:18;9.50;99.90
19561;DHT22;9927;47.792;10.616;2023-01-06T11:42:48;9.60;99.90
19561;DHT22;9927;47.792;10.616;2023-01-06T11:45:36;9.30;99.90
19561;DHT22;9927;47.792;10.616;2023-01-06T11:48:11;9.10;99.90
19561;DHT22;9927;47.792;10.616;2023-01-06T11:50:48;9.10;99.90
19561;DHT22;9927;47.792;10.616;2023-01-06T11:53:16;9.10;99.90
19561;DHT22;9927;47.792;10.616;2023-01-06T12:06:40;8.90;99.90
19561;DHT22;9927;47.792;10.616;2023-01-06T12:09:25;9.00;99.90
19561;DHT22;9927;47.792;10.616;2023-01-06T12:11:55;9.00;99.90
19561;DHT22;9927;47.792;10.616;2023-01-06T12:14:44;9.10;99.90
19561;DHT22;9927;47.792;10.616;2023-01-06T12:20:14;9.00;99.90
19561;DHT22;9927;47.792;10.616;2023-01-06T12:22:51;8.80;99.90
19561;DHT22;9927;47.792;10.616;2023-01-06T12:28:13;9.10;99.90
19561;DHT22;9927;47.792;10.616;2023-01-06T12:33:28;9.10;99.90
19561;DHT22;9927;47.792;10.616;2023-01-06T12:35:59;9.10;99.90
19561;DHT22;9927;47.792;10.616;2023-01-06T12:49:56;9.40;99.90
19561;DHT22;9927;47.792;10.616;2023-01-06T12:52:37;9.30;99.90
19561;DHT22;9927;47.792;10.616;2023-01-06T12:55:06;9.50;99.90
19561;DHT22;9927;47.792;10.616;2023-01-06T13:06:24;9.50;99.90
19561;DHT22;9927;47.792;10.616;2023-01-06T13:14:31;9.40;99.90
19561;DHT22;9927;47.792;10.616;2023-01-06T13:19:54;9.50;99.90
19561;DHT22;9927;47.792;10.616;2023-01-06T13:22:31;9.50;99.90
19561;DHT22;9927;47.792;10.616;2023-01-06T13:31:03;9.40;99.90
19561;DHT22;9927;47.792;10.616;2023-01-06T13:39:04;9.40;99.90
19561;DHT22;9927;47.792;10.616;2023-01-06T13:41:35;9.50;99.90
19561;DHT22;9927;47.792;10.616;2023-01-06T13:44:08;9.50;99.90
19561;DHT22;9927;47.792;10.616;2023-01-06T13:46:39;9.70;99.90
19561;DHT22;9927;47.792;10.616;2023-01-06T13:49:06;9.70;99.90
19561;DHT22;9927;47.792;10.616;2023-01-06T13:51:36;9.90;99.90
19561;DHT22;9927;47.792;10.616;2023-01-06T13:54:04;9.90;99.90
19561;DHT22;9927;47.792;10.616;2023-01-06T13:56:33;9.60;99.90
19561;DHT22;9927;47.792;10.616;2023-01-06T13:59:46;9.50;99.90
19561;DHT22;9927;47.792;10.616;2023-01-06T14:08:01;9.30;99.90
19561;DHT22;9927;47.792;10.616;2023-01-06T14:10:37;9.30;99.90
19561;DHT22;9927;47.792;10.616;2023-01-06T14:13:29;9.30;99.90
19561;DHT22;9927;47.792;10.616;2023-01-06T14:16:02;9.40;99.90
19561;DHT22;9927;47.792;10.616;2023-01-06T14:18:35;9.30;99.90
19561;DHT22;9927;47.792;10.616;2023-01-06T14:21:16;9.30;99.90
19561;DHT22;9927;47.792;10.616;2023-01-06T14:27:06;9.40;99.90
19561;DHT22;9927;47.792;10.616;2023-01-06T14:37:11;9.40;99.90
19561;DHT22;9927;47.792;10.616;2023-01-06T14:39:45;9.40;99.90
19561;DHT22;9927;47.792;10.616;2023-01-06T14:42:23;9.20;99.90
19561;DHT22;9927;47.792;10.616;2023-01-06T14:44:58;9.00;99.90
19561;DHT22;9927;47.792;10.616;2023-01-06T14:50:01;9.00;99.90
19561;DHT22;9927;47.792;10.616;2023-01-06T14:52:34;9.00;99.90
19561;DHT22;9927;47.792;10.616;2023-01-06T14:55:15;8.90;99.90
19561;DHT22;9927;47.792;10.616;2023-01-06T14:57:44;8.90;99.90
19561;DHT22;9927;47.792;10.616;2023-01-06T15:00:15;8.90;99.90
19561;DHT22;9927;47.792;10.616;2023-01-06T15:02:57;8.90;99.90
19561;DHT22;9927;47.792;10.616;2023-01-06T15:05:38;8.70;99.90
19561;DHT22;9927;47.792;10.616;2023-01-06T15:10:41;8.70;99.90
19561;DHT22;9927;47.792;10.616;2023-01-06T15:13:34;8.70;99.90
19561;DHT22;9927;47.792;10.616;2023-01-06T15:16:10;8.70;99.90
19561;DHT22;9927;47.792;10.616;2023-01-06T15:18:42;8.60;99.90
19561;DHT22;9927;47.792;10.616;2023-01-06T15:21:10;8.70;99.90
19561;DHT22;9927;47.792;10.616;2023-01-06T15:23:44;8.60;99.90
19561;DHT22;9927;47.792;10.616;2023-01-06T15:26:27;8.60;99.90
19561;DHT22;9927;47.792;10.616;2023-01-06T15:29:19;8.40;99.90
19561;DHT22;9927;47.792;10.616;2023-01-06T15:31:48;8.30;99.90
19561;DHT22;9927;47.792;10.616;2023-01-06T15:34:21;8.30;99.90
19561;DHT22;9927;47.792;10.616;2023-01-06T15:36:51;8.20;99.90
19561;DHT22;9927;47.792;10.616;2023-01-06T15:39:28;8.10;99.90
19561;DHT22;9927;47.792;10.616;2023-01-06T15:41:57;8.10;99.90
19561;DHT22;9927;47.792;10.616;2023-01-06T15:44:29;8.10;99.90
19561;DHT22;9927;47.792;10.616;2023-01-06T15:49:39;7.90;99.90
19561;DHT22;9927;47.792;10.616;2023-01-06T15:52:34;7.90;99.90
19561;DHT22;9927;47.792;10.616;2023-01-06T15:55:02;7.80;99.90
19561;DHT22;9927;47.792;10.616;2023-01-06T15:57:34;7.70;99.90
19561;DHT22;9927;47.792;10.616;2023-01-06T16:00:17;7.60;99.90
19561;DHT22;9927;47.792;10.616;2023-01-06T16:02:46;7.60;99.90
19561;DHT22;9927;47.792;10.616;2023-01-06T16:13:56;7.00;99.90
19561;DHT22;9927;47.792;10.616;2023-01-06T16:16:32;7.00;99.90
19561;DHT22;9927;47.792;10.616;2023-01-06T16:19:18;7.00;99.90
19561;DHT22;9927;47.792;10.616;2023-01-06T16:21:50;6.90;99.90
19561;DHT22;9927;47.792;10.616;2023-01-06T16:24:20;6.70;99.90
19561;DHT22;9927;47.792;10.616;2023-01-06T16:26:54;6.60;99.90
19561;DHT22;9927;47.792;10.616;2023-01-06T16:29:28;6.60;99.90
19561;DHT22;9927;47.792;10.616;2023-01-06T16:31:56;6.60;99.90
19561;DHT22;9927;47.792;10.616;2023-01-06T16:34:30;6.60;99.90
19561;DHT22;9927;47.792;10.616;2023-01-06T16:36:59;6.70;99.90
19561;DHT22;9927;47.792;10.616;2023-01-06T16:39:26;6.80;99.90
19561;DHT22;9927;47.792;10.616;2023-01-06T16:44:30;7.00;99.90
19561;DHT22;9927;47.792;10.616;2023-01-06T16:46:58;6.90;99.90
19561;DHT22;9927;47.792;10.616;2023-01-06T16:49:25;7.00;99.90
19561;DHT22;9927;47.792;10.616;2023-01-06T16:51:55;7.00;99.90
19561;DHT22;9927;47.792;10.616;2023-01-06T16:54:22;7.10;99.90
19561;DHT22;9927;47.792;10.616;2023-01-06T16:56:50;7.30;99.90
19561;DHT22;9927;47.792;10.616;2023-01-06T16:59:19;7.40;99.90
19561;DHT22;9927;47.792;10.616;2023-01-06T17:01:48;7.40;99.90
19561;DHT22;9927;47.792;10.616;2023-01-06T17:04:15;7.40;99.90
19561;DHT22;9927;47.792;10.616;2023-01-06T17:06:44;7.30;99.90
19561;DHT22;9927;47.792;10.616;2023-01-06T17:09:20;7.40;99.90
19561;DHT22;9927;47.792;10.616;2023-01-06T17:11:49;7.40;99.90
19561;DHT22;9927;47.792;10.616;2023-01-06T17:14:19;7.40;99.90
19561;DHT22;9927;47.792;10.616;2023-01-06T17:16:47;7.40;99.90
19561;DHT22;9927;47.792;10.616;2023-01-06T17:21:46;7.60;99.90
19561;DHT22;9927;47.792;10.616;2023-01-06T17:24:20;7.60;99.90
19561;DHT22;9927;47.792;10.616;2023-01-06T17:26:59;7.60;99.90
19561;DHT22;9927;47.792;10.616;2023-01-06T17:29:36;7.70;99.90
19561;DHT22;9927;47.792;10.616;2023-01-06T17:32:04;7.70;99.90
19561;DHT22;9927;47.792;10.616;2023-01-06T17:34:39;7.70;99.90
19561;DHT22;9927;47.792;10.616;2023-01-06T17:37:18;7.80;99.90
19561;DHT22;9927;47.792;10.616;2023-01-06T17:39:48;7.80;99.90
19561;DHT22;9927;47.792;10.616;2023-01-06T17:44:56;7.80;99.90
19561;DHT22;9927;47.792;10.616;2023-01-06T17:47:41;7.80;99.90
19561;DHT22;9927;47.792;10.616;2023-01-06T17:50:30;7.80;99.90
19561;DHT22;9927;47.792;10.616;2023-01-06T17:56:08;7.90;99.90
19561;DHT22;9927;47.792;10.616;2023-01-06T17:58:37;8.00;99.90
19561;DHT22;9927;47.792;10.616;2023-01-06T18:01:23;8.00;99.90
19561;DHT22;9927;47.792;10.616;2023-01-06T18:03:52;8.00;99.90
19561;DHT22;9927;47.792;10.616;2023-01-06T18:06:23;8.00;99.90
19561;DHT22;9927;47.792;10.616;2023-01-06T18:09:15;8.00;99.90
19561;DHT22;9927;47.792;10.616;2023-01-06T18:11:49;8.10;99.90
19561;DHT22;9927;47.792;10.616;2023-01-06T18:14:41;8.00;99.90
19561;DHT22;9927;47.792;10.616;2023-01-06T18:17:25;8.00;99.90
19561;DHT22;9927;47.792;10.616;2023-01-06T18:19:58;8.10;99.90
19561;DHT22;9927;47.792;10.616;2023-01-06T18:22:25;8.10;99.90
19561;DHT22;9927;47.792;10.616;2023-01-06T18:24:57;8.10;99.90
19561;DHT22;9927;47.792;10.616;2023-01-06T18:27:29;8.20;99.90
19561;DHT22;9927;47.792;10.616;2023-01-06T18:32:41;8.20;99.90
19561;DHT22;9927;47.792;10.616;2023-01-06T18:35:20;8.20;99.90
19561;DHT22;9927;47.792;10.616;2023-01-06T18:37:48;8.20;99.90
19561;DHT22;9927;47.792;10.616;2023-01-06T18:42:46;8.20;99.90
19561;DHT22;9927;47.792;10.616;2023-01-06T18:45:31;8.20;99.90
19561;DHT22;9927;47.792;10.616;2023-01-06T18:48:20;8.10;99.90
19561;DHT22;9927;47.792;10.616;2023-01-06T18:50:51;8.00;99.90
19561;DHT22;9927;47.792;10.616;2023-01-06T18:56:00;8.00;99.90
19561;DHT22;9927;47.792;10.616;2023-01-06T19:03:58;8.10;99.90
19561;DHT22;9927;47.792;10.616;2023-01-06T19:09:36;8.00;99.90
19561;DHT22;9927;47.792;10.616;2023-01-06T19:14:39;7.80;99.90
19561;DHT22;9927;47.792;10.616;2023-01-06T19:17:29;7.80;99.90
19561;DHT22;9927;47.792;10.616;2023-01-06T19:20:00;7.70;99.90
19561;DHT22;9927;47.792;10.616;2023-01-06T19:22:32;7.80;99.90
19561;DHT22;9927;47.792;10.616;2023-01-06T19:32:39;7.60;99.90
19561;DHT22;9927;47.792;10.616;2023-01-06T19:35:27;7.50;99.90
19561;DHT22;9927;47.792;10.616;2023-01-06T19:38:01;7.50;99.90
19561;DHT22;9927;47.792;10.616;2023-01-06T19:40:35;7.50;99.90
19561;DHT22;9927;47.792;10.616;2023-01-06T19:43:20;7.50;99.90
19561;DHT22;9927;47.792;10.616;2023-01-06T19:45:48;7.50;99.90
19561;DHT22;9927;47.792;10.616;2023-01-06T19:50:49;7.60;99.90
19561;DHT22;9927;47.792;10.616;2023-01-06T19:53:43;7.60;99.90
19561;DHT22;9927;47.792;10.616;2023-01-06T19:56:16;7.60;99.90
19561;DHT22;9927;47.792;10.616;2023-01-06T19:58:56;7.60;99.90
19561;DHT22;9927;47.792;10.616;2023-01-06T20:01:23;7.60;99.90
19561;DHT22;9927;47.792;10.616;2023-01-06T20:03:53;7.60;99.90
19561;DHT22;9927;47.792;10.616;2023-01-06T20:06:22;7.60;99.90
19561;DHT22;9927;47.792;10.616;2023-01-06T20:08:50;7.60;99.90
19561;DHT22;9927;47.792;10.616;2023-01-06T20:11:22;7.50;99.90
19561;DHT22;9927;47.792;10.616;2023-01-06T20:13:50;7.50;99.90
19561;DHT22;9927;47.792;10.616;2023-01-06T20:16:18;7.60;99.90
19561;DHT22;9927;47.792;10.616;2023-01-06T20:18:45;7.60;99.90
19561;DHT22;9927;47.792;10.616;2023-01-06T20:21:13;7.60;99.90
19561;DHT22;9927;47.792;10.616;2023-01-06T20:23:43;7.70;99.90
19561;DHT22;9927;47.792;10.616;2023-01-06T20:26:10;7.60;99.90
19561;DHT22;9927;47.792;10.616;2023-01-06T20:28:37;7.60;99.90
19561;DHT22;9927;47.792;10.616;2023-01-06T20:31:04;7.70;99.90
19561;DHT22;9927;47.792;10.616;2023-01-06T20:33:32;7.70;99.90
19561;DHT22;9927;47.792;10.616;2023-01-06T20:35:59;7.80;99.90
19561;DHT22;9927;47.792;10.616;2023-01-06T20:38:26;7.90;99.90
19561;DHT22;9927;47.792;10.616;2023-01-06T20:40:53;8.00;99.90
19561;DHT22;9927;47.792;10.616;2023-01-06T20:43:21;7.90;99.90
19561;DHT22;9927;47.792;10.616;2023-01-06T20:45:48;7.90;99.90
19561;DHT22;9927;47.792;10.616;2023-01-06T20:48:15;7.90;99.90
19561;DHT22;9927;47.792;10.616;2023-01-06T20:50:42;8.00;99.90
19561;DHT22;9927;47.792;10.616;2023-01-06T20:53:10;8.00;99.90
19561;DHT22;9927;47.792;10.616;2023-01-06T20:55:37;8.00;99.90
19561;DHT22;9927;47.792;10.616;2023-01-06T20:58:04;7.90;99.90
19561;DHT22;9927;47.792;10.616;2023-01-06T21:00:31;7.90;99.90
19561;DHT22;9927;47.792;10.616;2023-01-06T21:02:58;7.90;99.90
19561;DHT22;9927;47.792;10.616;2023-01-06T21:05:26;7.80;99.90
19561;DHT22;9927;47.792;10.616;2023-01-06T21:07:53;7.90;99.90
19561;DHT22;9927;47.792;10.616;2023-01-06T21:10:20;7.80;99.90
19561;DHT22;9927;47.792;10.616;2023-01-06T21:12:47;7.80;99.90
19561;DHT22;9927;47.792;10.616;2023-01-06T21:15:15;7.80;99.90
19561;DHT22;9927;47.792;10.616;2023-01-06T21:17:42;7.80;99.90
19561;DHT22;9927;47.792;10.616;2023-01-06T21:20:10;7.80;99.90
19561;DHT22;9927;47.792;10.616;2023-01-06T21:22:37;7.70;99.90
19561;DHT22;9927;47.792;10.616;2023-01-06T21:25:05;7.70;99.90
19561;DHT22;9927;47.792;10.616;2023-01-06T21:27:32;7.80;99.90
19561;DHT22;9927;47.792;10.616;2023-01-06T21:29:59;7.90;99.90
19561;DHT22;9927;47.792;10.616;2023-01-06T21:32:27;7.90;99.90
19561;DHT22;9927;47.792;10.616;2023-01-06T21:34:54;7.80;99.90
19561;DHT22;9927;47.792;10.616;2023-01-06T21:37:21;7.80;99.90
19561;DHT22;9927;47.792;10.616;2023-01-06T21:39:48;7.80;99.90
19561;DHT22;9927;47.792;10.616;2023-01-06T21:42:16;7.90;99.90
19561;DHT22;9927;47.792;10.616;2023-01-06T21:45:02;8.00;99.90
19561;DHT22;9927;47.792;10.616;2023-01-06T21:47:29;8.00;99.90
19561;DHT22;9927;47.792;10.616;2023-01-06T21:49:56;7.90;99.90
19561;DHT22;9927;47.792;10.616;2023-01-06T21:52:23;8.00;99.90
19561;DHT22;9927;47.792;10.616;2023-01-06T21:54:50;8.00;99.90
19561;DHT22;9927;47.792;10.616;2023-01-06T21:57:18;8.00;99.90
19561;DHT22;9927;47.792;10.616;2023-01-06T21:59:45;8.00;99.90
